createdAt,value
2023-11-30T00:00:55.627Z,3.20
2023-11-30T00:03:22.752Z,3.20
2023-11-30T00:05:49.983Z,3.20
2023-11-30T00:08:17.646Z,3.20
2023-11-30T00:10:44.649Z,3.20
2023-11-30T00:13:11.622Z,3.20
2023-11-30T00:15:38.703Z,3.20
2023-11-30T00:18:05.993Z,3.20
2023-11-30T00:20:32.996Z,3.20
2023-11-30T00:22:59.983Z,3.20
2023-11-30T00:25:27.877Z,3.20
2023-11-30T00:27:55.126Z,3.20
2023-11-30T00:30:22.577Z,3.10
2023-11-30T00:32:49.941Z,3.10
2023-11-30T00:35:17.166Z,3.00
2023-11-30T00:37:44.279Z,3.10
2023-11-30T00:40:12.586Z,3.10
2023-11-30T00:42:40.149Z,3.10
2023-11-30T00:45:08.110Z,3.00
2023-11-30T00:47:35.178Z,3.00
2023-11-30T00:50:02.594Z,2.90
2023-11-30T00:52:29.639Z,2.90
2023-11-30T00:54:56.609Z,2.90
2023-11-30T00:57:23.676Z,2.90
2023-11-30T00:59:50.725Z,2.80
2023-11-30T01:02:17.912Z,2.80
2023-11-30T01:04:44.952Z,2.70
2023-11-30T01:07:12.091Z,2.70
2023-11-30T01:09:39.945Z,2.70
2023-11-30T01:12:08.582Z,2.70
2023-11-30T01:14:35.601Z,2.70
2023-11-30T01:17:02.749Z,2.60
2023-11-30T01:19:30.408Z,2.60
2023-11-30T01:21:57.959Z,2.60
2023-11-30T01:24:25.539Z,2.60
2023-11-30T01:26:52.669Z,2.60
2023-11-30T01:29:20.093Z,2.60
2023-11-30T01:31:47.178Z,2.60
2023-11-30T01:34:14.272Z,2.60
2023-11-30T01:36:41.931Z,2.50
2023-11-30T01:39:09.149Z,2.50
2023-11-30T01:41:37.703Z,2.50
2023-11-30T01:44:04.980Z,2.50
2023-11-30T01:46:32.409Z,2.50
2023-11-30T01:48:59.643Z,2.50
2023-11-30T01:51:27.746Z,2.60
2023-11-30T01:53:55.480Z,2.50
2023-11-30T01:56:22.751Z,2.50
2023-11-30T01:58:50.209Z,2.40
2023-11-30T02:01:17.180Z,2.40
2023-11-30T02:03:44.257Z,2.40
2023-11-30T02:06:11.443Z,2.50
2023-11-30T02:08:38.450Z,2.40
2023-11-30T02:11:05.903Z,2.40
2023-11-30T02:13:32.962Z,2.40
2023-11-30T02:16:01.510Z,2.40
2023-11-30T02:18:28.681Z,2.40
2023-11-30T02:20:57.143Z,2.40
2023-11-30T02:23:24.317Z,2.40
2023-11-30T02:25:51.333Z,2.40
2023-11-30T02:28:19.217Z,2.30
2023-11-30T02:30:49.501Z,2.30
2023-11-30T02:33:16.939Z,2.30
2023-11-30T02:35:44.075Z,2.30
2023-11-30T02:38:11.591Z,2.30
2023-11-30T02:40:38.768Z,2.30
2023-11-30T02:43:08.087Z,2.20
2023-11-30T02:45:35.045Z,2.30
2023-11-30T02:48:02.248Z,2.30
2023-11-30T02:50:29.708Z,2.20
2023-11-30T02:52:56.713Z,2.20
2023-11-30T02:55:24.036Z,2.30
2023-11-30T02:57:51.334Z,2.20
2023-11-30T03:00:18.843Z,2.30
2023-11-30T03:02:46.098Z,2.20
2023-11-30T03:05:13.290Z,2.10
2023-11-30T03:07:40.294Z,2.10
2023-11-30T03:10:07.769Z,2.10
2023-11-30T03:12:35.270Z,2.10
2023-11-30T03:15:02.324Z,2.00
2023-11-30T03:17:30.057Z,2.00
2023-11-30T03:19:57.145Z,1.90
2023-11-30T03:22:24.153Z,1.90
2023-11-30T03:24:51.137Z,2.00
2023-11-30T03:27:18.161Z,2.00
2023-11-30T03:29:45.423Z,2.00
2023-11-30T03:32:12.527Z,2.00
2023-11-30T03:34:39.810Z,1.90
2023-11-30T03:37:07.004Z,1.90
2023-11-30T03:39:34.097Z,1.90
2023-11-30T03:42:01.164Z,1.90
2023-11-30T03:44:28.231Z,1.80
2023-11-30T03:46:55.363Z,1.70
2023-11-30T03:49:22.626Z,1.70
2023-11-30T03:51:50.634Z,1.70
2023-11-30T03:54:17.779Z,1.80
2023-11-30T03:56:44.822Z,1.90
2023-11-30T03:59:12.395Z,1.80
2023-11-30T04:01:39.549Z,1.90
2023-11-30T04:04:07.335Z,1.80
2023-11-30T04:06:34.446Z,1.80
2023-11-30T04:09:01.581Z,1.80
2023-11-30T04:11:28.717Z,1.80
2023-11-30T04:14:04.946Z,1.80
2023-11-30T04:16:32.127Z,1.90
2023-11-30T04:19:00.155Z,1.90
2023-11-30T04:21:27.291Z,2.00
2023-11-30T04:23:54.801Z,1.90
2023-11-30T04:26:22.047Z,1.90
2023-11-30T04:28:49.053Z,1.90
2023-11-30T04:31:16.148Z,1.90
2023-11-30T04:33:43.222Z,1.90
2023-11-30T04:36:10.939Z,1.90
2023-11-30T04:38:38.090Z,1.90
2023-11-30T04:41:05.266Z,2.00
2023-11-30T04:43:33.876Z,2.00
2023-11-30T04:46:01.048Z,2.00
2023-11-30T04:48:29.003Z,2.00
2023-11-30T04:50:56.016Z,2.00
2023-11-30T04:53:23.131Z,2.10
2023-11-30T04:55:50.339Z,2.00
2023-11-30T04:58:17.508Z,2.00
2023-11-30T05:00:44.701Z,2.00
2023-11-30T05:03:12.094Z,1.90
2023-11-30T05:05:39.590Z,2.00
2023-11-30T05:08:06.722Z,2.00
2023-11-30T05:10:33.847Z,2.00
2023-11-30T05:13:02.274Z,1.90
2023-11-30T05:15:30.052Z,1.80
2023-11-30T05:17:57.128Z,1.90
2023-11-30T05:20:24.172Z,1.90
2023-11-30T05:22:51.716Z,1.80
2023-11-30T05:25:18.948Z,1.80
2023-11-30T05:27:48.684Z,1.80
2023-11-30T05:30:15.825Z,1.80
2023-11-30T05:32:42.946Z,1.80
2023-11-30T05:35:10.120Z,1.90
2023-11-30T05:37:37.108Z,1.80
2023-11-30T05:40:05.761Z,1.80
2023-11-30T05:42:32.911Z,1.80
2023-11-30T05:45:00.048Z,1.70
2023-11-30T05:47:27.176Z,1.60
2023-11-30T05:49:55.924Z,1.60
2023-11-30T05:52:23.801Z,1.50
2023-11-30T05:54:50.932Z,1.50
